LOWS/SZG METAR and TAF weather

Enter ICAO airport designator
Station Type Date Time Source
LOWS METAR 2020/07/08 22:20 UTC NOAA

LOWS 082220Z AUTO 31004KT 280V340 9999 SCT070 BKN100 18/13 Q1019


Station Type Date Time Source
LOWS Decoded METAR 2020/07/08 22:20 UTC NOAA

Salzburg-Flughafen, Austria (LOWS) 47-48N 013-00E 450M
Jul 08, 2020 - 06:20 PM EDT / 2020.07.08 2220 UTC
Wind: from the NW (310 degrees) at 5 MPH (4 KT) (direction variable):0
Visibility: greater than 7 mile(s):0
Sky conditions: mostly cloudy
Temperature: 64 F (18 C)
Dew Point: 55 F (13 C)
Relative Humidity: 72%
Pressure (altimeter): 30.09 in. Hg (1019 hPa)
ob: LOWS 082220Z AUTO 31004KT 280V340 9999 SCT070 BKN100 18/13 Q1019
cycle: 22

Station Type Date Time Source
LOWS TAF 2020/07/08 18:21 UTC NOAA

TAF LOWS 081715Z 0818/0918 34007KT 9999 FEW060 TX27/0915Z TN15/0903Z
BECMG 0819/0821 15005KT CAVOK
TEMPO 0903/0906 15010KT
BECMG 0908/0910 35007KT 9999 FEW060

Example: see airport list